createdAt,value
2018-05-12T00:01:07.162Z,56.41
2018-05-12T00:03:36.844Z,56.49
2018-05-12T00:06:06.824Z,56.53
2018-05-12T00:08:35.888Z,56.65
2018-05-12T00:11:08.449Z,56.75
2018-05-12T00:13:36.727Z,57.08
2018-05-12T00:16:06.807Z,57.23
2018-05-12T00:18:40.139Z,57.17
2018-05-12T00:21:14.498Z,57.16
2018-05-12T00:23:43.309Z,57.44
2018-05-12T00:26:11.721Z,57.79
2018-05-12T00:28:40.014Z,57.75
2018-05-12T00:31:07.853Z,57.80
2018-05-12T00:33:36.592Z,57.88
2018-05-12T00:36:04.741Z,57.49
2018-05-12T00:38:32.646Z,57.64
2018-05-12T00:41:00.369Z,57.76
2018-05-12T00:43:28.257Z,58.14
2018-05-12T00:45:55.945Z,57.87
2018-05-12T00:48:23.657Z,57.87
2018-05-12T00:50:52.749Z,58.09
2018-05-12T00:53:20.782Z,58.64
2018-05-12T00:55:50.717Z,58.92
2018-05-12T00:58:18.242Z,59.20
2018-05-12T01:00:46.276Z,59.47
2018-05-12T01:03:14.061Z,59.73
2018-05-12T01:05:42.053Z,59.94
2018-05-12T01:08:09.787Z,60.08
2018-05-12T01:10:37.532Z,59.96
2018-05-12T01:13:05.350Z,60.34
2018-05-12T01:15:33.029Z,60.45
2018-05-12T01:18:00.759Z,60.54
2018-05-12T01:20:28.384Z,60.38
2018-05-12T01:22:56.092Z,60.54
2018-05-12T01:25:23.696Z,60.66
2018-05-12T01:27:51.614Z,60.91
2018-05-12T01:30:19.274Z,61.11
2018-05-12T01:32:47.058Z,61.33
2018-05-12T01:35:14.796Z,61.18
2018-05-12T01:37:42.638Z,61.52
2018-05-12T01:40:10.245Z,61.30
2018-05-12T01:42:37.906Z,61.16
2018-05-12T01:45:05.562Z,61.37
2018-05-12T01:47:33.217Z,61.97
2018-05-12T01:50:00.824Z,62.03
2018-05-12T01:52:28.482Z,62.19
2018-05-12T01:54:56.149Z,62.56
2018-05-12T01:57:23.829Z,62.71
2018-05-12T01:59:51.519Z,62.55
2018-05-12T02:02:19.149Z,62.33
2018-05-12T02:04:46.955Z,62.62
2018-05-12T02:07:14.608Z,62.13
2018-05-12T02:09:42.245Z,61.80
2018-05-12T02:12:09.929Z,61.74
2018-05-12T02:14:37.587Z,61.37
2018-05-12T02:17:05.205Z,61.11
2018-05-12T02:19:32.934Z,61.71
2018-05-12T02:22:00.596Z,61.71
2018-05-12T02:24:28.253Z,62.12
2018-05-12T02:26:55.857Z,63.15
2018-05-12T02:29:23.500Z,63.61
2018-05-12T02:31:51.100Z,63.89
2018-05-12T02:34:18.733Z,63.98
2018-05-12T02:36:46.337Z,64.12
2018-05-12T02:39:13.993Z,63.93
2018-05-12T02:41:41.613Z,64.35
2018-05-12T02:44:09.344Z,64.12
2018-05-12T02:46:36.949Z,64.06
2018-05-12T02:49:04.547Z,63.85
2018-05-12T02:51:32.326Z,64.10
2018-05-12T02:53:59.913Z,63.94
2018-05-12T02:56:27.653Z,63.89
2018-05-12T02:58:55.253Z,63.91
2018-05-12T03:01:22.935Z,64.43
2018-05-12T03:03:50.558Z,65.71
2018-05-12T03:06:18.260Z,66.07
2018-05-12T03:08:45.860Z,65.98
2018-05-12T03:11:13.492Z,66.35
2018-05-12T03:13:41.177Z,66.38
2018-05-12T03:16:08.952Z,66.31
2018-05-12T03:18:36.555Z,66.11
2018-05-12T03:21:04.146Z,66.30
2018-05-12T03:23:31.780Z,66.44
2018-05-12T03:25:59.378Z,66.24
2018-05-12T03:28:27.024Z,66.58
2018-05-12T03:30:54.630Z,66.58
2018-05-12T03:33:22.260Z,66.84
2018-05-12T03:35:49.859Z,66.90
2018-05-12T03:38:17.491Z,66.98
2018-05-12T03:40:45.090Z,66.64
2018-05-12T03:43:12.834Z,66.14
2018-05-12T03:45:40.433Z,66.06
2018-05-12T03:48:08.056Z,66.38
2018-05-12T03:50:35.661Z,66.67
2018-05-12T03:53:03.345Z,66.83
2018-05-12T03:55:30.941Z,66.56
2018-05-12T03:57:58.599Z,66.54
2018-05-12T04:00:26.194Z,66.69
2018-05-12T04:02:53.833Z,67.53
2018-05-12T04:05:33.119Z,68.00
2018-05-12T04:08:12.468Z,68.03
2018-05-12T04:10:55.835Z,67.77
2018-05-12T04:13:23.444Z,67.63
2018-05-12T04:15:52.733Z,67.99
2018-05-12T04:18:20.487Z,68.03
2018-05-12T04:20:48.107Z,68.02
2018-05-12T04:23:15.767Z,67.93
2018-05-12T04:25:43.470Z,67.77
2018-05-12T04:28:11.099Z,67.64
2018-05-12T04:30:38.748Z,67.74
2018-05-12T04:33:06.361Z,68.10
2018-05-12T04:35:34.012Z,68.34
2018-05-12T04:38:01.598Z,68.47
2018-05-12T04:40:29.294Z,68.80
2018-05-12T04:42:56.901Z,68.58
2018-05-12T04:45:24.542Z,68.41
2018-05-12T04:47:52.209Z,68.36
2018-05-12T04:50:19.830Z,69.26
2018-05-12T04:52:47.515Z,69.25
2018-05-12T04:55:15.138Z,68.93
2018-05-12T04:57:42.836Z,68.57
2018-05-12T05:00:10.487Z,68.55
2018-05-12T05:02:38.361Z,68.06
2018-05-12T05:05:07.154Z,68.67
2018-05-12T05:07:34.844Z,69.44
2018-05-12T05:10:02.958Z,68.95
2018-05-12T05:12:30.629Z,69.35
2018-05-12T05:14:58.372Z,68.91
2018-05-12T05:17:26.071Z,68.50
2018-05-12T05:19:55.636Z,68.11
2018-05-12T05:22:23.449Z,68.02
2018-05-12T05:24:52.155Z,67.84
2018-05-12T05:27:20.829Z,67.95
2018-05-12T05:29:48.436Z,67.88
2018-05-12T05:32:16.204Z,67.80
2018-05-12T05:34:44.497Z,67.76
2018-05-12T05:37:15.989Z,67.73
2018-05-12T05:39:43.897Z,67.60
2018-05-12T05:42:11.540Z,67.71
2018-05-12T05:44:39.223Z,67.81
2018-05-12T05:47:06.808Z,67.61
2018-05-12T05:49:34.580Z,67.42
2018-05-12T05:52:02.176Z,67.06
2018-05-12T05:54:29.866Z,67.18
2018-05-12T05:56:57.465Z,67.10
2018-05-12T05:59:25.289Z,66.62
2018-05-12T06:01:53.050Z,66.82
2018-05-12T06:04:20.810Z,66.90
2018-05-12T06:06:48.567Z,66.54
2018-05-12T06:09:16.191Z,65.65
2018-05-12T06:11:43.973Z,65.52
2018-05-12T06:14:11.840Z,65.39
2018-05-12T06:16:39.612Z,65.01
2018-05-12T06:19:07.277Z,64.51
2018-05-12T06:21:34.884Z,64.17
2018-05-12T06:24:02.565Z,63.99
2018-05-12T06:26:30.295Z,64.02
2018-05-12T06:28:57.983Z,63.50
2018-05-12T06:31:26.200Z,63.48
2018-05-12T06:33:54.041Z,63.43
2018-05-12T06:36:21.805Z,63.72
2018-05-12T06:38:50.295Z,62.61
2018-05-12T06:41:18.042Z,62.40
2018-05-12T06:43:45.782Z,62.28
2018-05-12T06:46:13.610Z,62.39
2018-05-12T06:48:41.438Z,62.58
2018-05-12T06:51:09.189Z,61.91
2018-05-12T06:53:36.854Z,61.85
2018-05-12T06:56:04.560Z,61.89
2018-05-12T06:58:32.243Z,61.53
2018-05-12T07:00:59.889Z,61.31
2018-05-12T07:03:27.576Z,61.29
2018-05-12T07:05:55.297Z,60.49
2018-05-12T07:08:22.949Z,60.59
2018-05-12T07:10:50.673Z,60.87
2018-05-12T07:13:18.295Z,60.18
2018-05-12T07:15:45.936Z,60.62
2018-05-12T07:18:13.601Z,60.53
2018-05-12T07:20:41.217Z,60.28
2018-05-12T07:23:08.892Z,60.52
2018-05-12T07:25:36.601Z,59.40
2018-05-12T07:28:04.309Z,58.76
2018-05-12T07:30:31.901Z,58.05
2018-05-12T07:32:59.537Z,58.31
2018-05-12T07:35:27.230Z,58.90
2018-05-12T07:37:54.865Z,58.37
2018-05-12T07:40:22.576Z,57.37
2018-05-12T07:42:50.275Z,57.67
2018-05-12T07:45:17.918Z,57.10
2018-05-12T07:47:47.783Z,56.64
2018-05-12T07:50:15.431Z,56.99
2018-05-12T07:52:43.175Z,56.48
2018-05-12T07:55:11.254Z,56.59
2018-05-12T07:57:42.413Z,56.27
2018-05-12T08:00:10.499Z,56.15
2018-05-12T08:02:38.911Z,55.43
2018-05-12T08:05:06.780Z,55.57
2018-05-12T08:07:35.594Z,55.87
2018-05-12T08:10:03.265Z,56.35
2018-05-12T08:12:30.941Z,55.30
2018-05-12T08:14:58.638Z,54.64
2018-05-12T08:17:26.337Z,53.88
2018-05-12T08:19:54.029Z,53.60
2018-05-12T08:22:21.698Z,53.05
2018-05-12T08:24:49.341Z,52.01
2018-05-12T08:27:17.001Z,50.68
2018-05-12T08:29:45.314Z,50.88
2018-05-12T08:32:12.965Z,50.73
2018-05-12T08:34:40.657Z,50.83
2018-05-12T08:37:08.356Z,51.06
2018-05-12T08:39:36.466Z,49.65
2018-05-12T08:42:04.104Z,48.87
2018-05-12T08:44:31.729Z,48.81
2018-05-12T08:46:59.365Z,49.23
2018-05-12T08:49:26.984Z,47.05
2018-05-12T08:51:54.632Z,46.72
2018-05-12T08:54:22.360Z,48.25
2018-05-12T08:56:49.999Z,48.24
2018-05-12T08:59:17.613Z,45.49
2018-05-12T09:01:45.313Z,44.96
2018-05-12T09:04:12.929Z,44.53
2018-05-12T09:06:40.571Z,42.39
2018-05-12T09:09:08.249Z,41.78
2018-05-12T09:11:35.888Z,40.58
2018-05-12T09:14:03.510Z,39.87
2018-05-12T09:16:31.161Z,37.59
2018-05-12T09:18:58.773Z,36.19
2018-05-12T09:21:26.463Z,35.86
2018-05-12T09:23:54.157Z,37.75
2018-05-12T09:26:21.777Z,37.76
2018-05-12T09:28:49.417Z,37.30
2018-05-12T09:31:16.999Z,38.03
2018-05-12T09:33:44.629Z,39.81
2018-05-12T09:36:12.240Z,39.69
2018-05-12T09:38:39.955Z,39.11
2018-05-12T09:41:07.545Z,36.71
2018-05-12T09:43:35.201Z,36.57
2018-05-12T09:46:02.814Z,36.62
2018-05-12T09:48:30.466Z,36.06
2018-05-12T09:50:58.112Z,35.32
2018-05-12T09:53:25.796Z,35.41
2018-05-12T09:55:53.412Z,36.11
2018-05-12T09:58:21.054Z,35.96
2018-05-12T10:00:48.646Z,35.26
2018-05-12T10:03:16.433Z,36.26
2018-05-12T10:05:44.028Z,36.46
2018-05-12T10:08:11.647Z,36.63
2018-05-12T10:10:39.300Z,36.22
2018-05-12T10:13:06.908Z,36.67
2018-05-12T10:15:34.650Z,35.52
2018-05-12T10:18:02.161Z,36.33
2018-05-12T10:20:29.856Z,35.21
2018-05-12T10:22:57.488Z,35.13
2018-05-12T10:25:25.168Z,34.96
2018-05-12T10:27:52.748Z,35.14
2018-05-12T10:30:20.396Z,34.94
2018-05-12T10:32:48.005Z,33.67
2018-05-12T10:35:15.694Z,34.24
2018-05-12T10:37:43.310Z,33.95
2018-05-12T10:40:10.914Z,33.30
2018-05-12T10:42:38.681Z,33.50
2018-05-12T10:45:06.272Z,34.46
2018-05-12T10:47:33.944Z,33.09
2018-05-12T10:50:01.571Z,33.08
2018-05-12T10:52:29.378Z,33.08
2018-05-12T10:54:57.096Z,33.18
2018-05-12T10:57:24.744Z,33.61
2018-05-12T10:59:52.401Z,33.89
2018-05-12T11:02:20.040Z,33.32
2018-05-12T11:04:47.794Z,32.76
2018-05-12T11:07:15.435Z,33.58
2018-05-12T11:09:43.064Z,33.44
2018-05-12T11:12:10.753Z,32.20
2018-05-12T11:14:38.365Z,32.73
2018-05-12T11:17:06.035Z,33.05
2018-05-12T11:19:34.328Z,32.71
2018-05-12T11:22:02.209Z,32.59
2018-05-12T11:24:29.696Z,31.85
2018-05-12T11:26:57.294Z,30.95
2018-05-12T11:29:24.946Z,31.10
2018-05-12T11:31:52.602Z,31.26
2018-05-12T11:34:20.345Z,30.97
2018-05-12T11:36:47.949Z,31.92
2018-05-12T11:39:15.636Z,31.93
2018-05-12T11:41:43.260Z,31.35
2018-05-12T11:44:10.902Z,31.04
2018-05-12T11:46:38.491Z,30.47
2018-05-12T11:49:06.116Z,30.28
2018-05-12T11:51:33.761Z,29.50
2018-05-12T11:54:01.501Z,29.64
2018-05-12T11:56:29.005Z,30.41
2018-05-12T11:58:56.757Z,29.89
2018-05-12T12:01:24.377Z,28.64
2018-05-12T12:03:52.211Z,29.91
2018-05-12T12:06:19.725Z,28.88
2018-05-12T12:08:47.385Z,30.07
2018-05-12T12:11:15.008Z,30.32
2018-05-12T12:13:42.623Z,29.62
2018-05-12T12:16:10.253Z,29.59
2018-05-12T12:18:37.957Z,28.61
2018-05-12T12:21:05.584Z,28.47
2018-05-12T12:23:33.207Z,29.94
2018-05-12T12:26:00.896Z,27.42
2018-05-12T12:28:28.520Z,27.70
2018-05-12T12:30:56.158Z,28.24
2018-05-12T12:33:23.809Z,28.87
2018-05-12T12:35:51.414Z,28.67
2018-05-12T12:38:19.004Z,28.54
2018-05-12T12:40:46.637Z,30.10
2018-05-12T12:43:14.385Z,29.40
2018-05-12T12:45:42.077Z,29.04
2018-05-12T12:48:09.678Z,28.78
2018-05-12T12:50:37.311Z,27.59
2018-05-12T12:53:05.019Z,28.03
2018-05-12T12:55:32.699Z,28.27
2018-05-12T12:58:00.365Z,29.16
2018-05-12T13:00:28.126Z,28.38
2018-05-12T13:02:55.798Z,27.68
2018-05-12T13:05:23.439Z,27.67
2018-05-12T13:07:51.065Z,28.46
2018-05-12T13:10:18.666Z,27.11
2018-05-12T13:12:46.288Z,28.37
2018-05-12T13:15:14.029Z,29.53
2018-05-12T13:17:41.784Z,27.20
2018-05-12T13:20:09.445Z,27.59
2018-05-12T13:22:37.099Z,27.07
2018-05-12T13:25:04.721Z,25.96
2018-05-12T13:27:32.345Z,26.84
2018-05-12T13:29:59.977Z,26.90
2018-05-12T13:32:27.827Z,27.03
2018-05-12T13:34:55.358Z,27.78
2018-05-12T13:37:23.098Z,27.40
2018-05-12T13:39:50.708Z,25.93
2018-05-12T13:42:18.349Z,26.12
2018-05-12T13:44:46.013Z,27.93
2018-05-12T13:47:13.689Z,27.12
2018-05-12T13:49:41.353Z,27.41
2018-05-12T13:52:09.047Z,27.38
2018-05-12T13:54:36.732Z,28.79
2018-05-12T13:57:04.472Z,28.01
2018-05-12T13:59:32.075Z,28.73
2018-05-12T14:01:59.679Z,28.90
2018-05-12T14:04:27.321Z,28.61
2018-05-12T14:06:54.924Z,28.89
2018-05-12T14:09:22.575Z,29.12
2018-05-12T14:11:50.188Z,29.72
2018-05-12T14:14:17.820Z,29.47
2018-05-12T14:16:45.426Z,29.49
2018-05-12T14:19:13.074Z,28.41
2018-05-12T14:21:40.843Z,29.18
2018-05-12T14:24:08.470Z,28.62
2018-05-12T14:26:36.054Z,28.17
2018-05-12T14:29:03.684Z,28.72
2018-05-12T14:31:31.292Z,27.18
2018-05-12T14:33:58.916Z,27.96
2018-05-12T14:36:26.591Z,28.11
2018-05-12T14:38:54.209Z,28.66
2018-05-12T14:41:21.842Z,29.36
2018-05-12T14:43:49.485Z,30.00
2018-05-12T14:46:17.104Z,28.81
2018-05-12T14:48:44.693Z,28.55
2018-05-12T14:51:12.321Z,28.22
2018-05-12T14:53:39.957Z,28.62
2018-05-12T14:56:07.601Z,28.95
2018-05-12T14:58:35.255Z,28.71
2018-05-12T15:01:03.050Z,29.46
2018-05-12T15:03:30.731Z,29.31
2018-05-12T15:05:58.371Z,28.71
2018-05-12T15:08:26.207Z,28.87
2018-05-12T15:10:53.817Z,27.88
2018-05-12T15:13:21.448Z,28.09
2018-05-12T15:15:49.092Z,27.79
2018-05-12T15:18:16.920Z,27.24
2018-05-12T15:20:44.552Z,27.57
2018-05-12T15:23:12.156Z,28.27
2018-05-12T15:25:39.848Z,28.39
2018-05-12T15:28:07.448Z,27.82
2018-05-12T15:30:35.323Z,28.67
2018-05-12T15:33:02.926Z,29.05
2018-05-12T15:35:30.615Z,28.96
2018-05-12T15:37:58.259Z,28.83
2018-05-12T15:40:25.857Z,28.92
2018-05-12T15:42:53.624Z,28.34
2018-05-12T15:45:21.244Z,28.69
2018-05-12T15:47:48.936Z,28.75
2018-05-12T15:50:16.562Z,28.52
2018-05-12T15:52:44.225Z,29.03
2018-05-12T15:55:11.830Z,28.70
2018-05-12T15:57:39.486Z,29.53
2018-05-12T16:00:07.104Z,28.71
2018-05-12T16:02:34.769Z,29.46
2018-05-12T16:05:02.503Z,28.39
2018-05-12T16:07:30.188Z,28.13
2018-05-12T16:09:57.845Z,28.59
2018-05-12T16:12:25.503Z,28.57
2018-05-12T16:14:53.101Z,28.74
2018-05-12T16:17:21.095Z,28.94
2018-05-12T16:19:48.765Z,29.54
2018-05-12T16:22:16.365Z,29.57
2018-05-12T16:24:44.082Z,29.70
2018-05-12T16:27:11.685Z,29.03
2018-05-12T16:29:39.342Z,29.33
2018-05-12T16:32:06.973Z,28.51
2018-05-12T16:34:34.605Z,28.97
2018-05-12T16:37:02.750Z,29.30
2018-05-12T16:39:31.360Z,29.71
2018-05-12T16:41:59.032Z,29.71
2018-05-12T16:44:26.669Z,30.06
2018-05-12T16:46:54.314Z,30.41
2018-05-12T16:49:21.977Z,30.78
2018-05-12T16:51:49.605Z,30.11
2018-05-12T16:54:17.250Z,30.24
2018-05-12T16:56:44.938Z,30.75
2018-05-12T16:59:12.602Z,31.30
2018-05-12T17:01:41.864Z,31.47
2018-05-12T17:04:09.809Z,32.13
2018-05-12T17:06:37.413Z,32.73
2018-05-12T17:09:05.640Z,33.27
2018-05-12T17:11:33.278Z,33.28
2018-05-12T17:14:01.047Z,33.02
2018-05-12T17:16:28.685Z,33.31
2018-05-12T17:18:56.293Z,33.08
2018-05-12T17:21:23.951Z,33.26
2018-05-12T17:23:51.547Z,33.28
2018-05-12T17:26:19.186Z,33.87
2018-05-12T17:28:46.805Z,33.95
2018-05-12T17:31:14.552Z,34.25
2018-05-12T17:33:42.165Z,34.17
2018-05-12T17:36:09.811Z,34.22
2018-05-12T17:38:37.513Z,34.42
2018-05-12T17:41:05.169Z,34.50
2018-05-12T17:43:32.769Z,34.50
2018-05-12T17:46:00.430Z,34.57
2018-05-12T17:48:28.132Z,34.87
2018-05-12T17:50:55.782Z,35.53
2018-05-12T17:53:23.369Z,36.43
2018-05-12T17:55:51.008Z,35.55
2018-05-12T17:58:18.689Z,35.83
2018-05-12T18:00:46.329Z,36.17
2018-05-12T18:03:14.033Z,36.87
2018-05-12T18:05:41.745Z,36.73
2018-05-12T18:08:09.466Z,36.85
2018-05-12T18:10:37.221Z,37.05
2018-05-12T18:13:04.853Z,36.98
2018-05-12T18:15:32.530Z,37.34
2018-05-12T18:18:00.175Z,37.51
2018-05-12T18:20:27.792Z,37.68
2018-05-12T18:22:55.428Z,37.82
2018-05-12T18:25:23.046Z,38.14
2018-05-12T18:27:50.853Z,38.41
2018-05-12T18:30:18.445Z,38.94
2018-05-12T18:32:46.117Z,38.54
2018-05-12T18:35:13.775Z,38.61
2018-05-12T18:37:41.362Z,38.65
2018-05-12T18:40:09.085Z,39.41
2018-05-12T18:42:36.717Z,40.38
2018-05-12T18:45:04.354Z,40.61
2018-05-12T18:47:31.979Z,40.76
2018-05-12T18:49:59.621Z,40.64
2018-05-12T18:52:27.248Z,40.77
2018-05-12T18:54:54.896Z,41.43
2018-05-12T18:57:22.515Z,41.46
2018-05-12T18:59:50.157Z,41.50
2018-05-12T19:02:17.760Z,41.53
2018-05-12T19:04:45.380Z,41.68
2018-05-12T19:07:13.081Z,41.99
2018-05-12T19:09:40.737Z,42.24
2018-05-12T19:12:08.341Z,42.36
2018-05-12T19:14:36.114Z,42.77
2018-05-12T19:17:03.704Z,43.24
2018-05-12T19:19:33.012Z,43.45
2018-05-12T19:22:00.774Z,44.01
2018-05-12T19:24:28.429Z,44.03
2018-05-12T19:26:56.046Z,44.14
2018-05-12T19:29:24.221Z,45.48
2018-05-12T19:31:51.841Z,46.09
2018-05-12T19:34:19.445Z,46.56
2018-05-12T19:36:47.180Z,46.92
2018-05-12T19:39:14.790Z,47.72
2018-05-12T19:41:42.400Z,47.79
2018-05-12T19:44:10.000Z,47.50
2018-05-12T19:46:37.627Z,48.02
2018-05-12T19:49:05.261Z,48.44
2018-05-12T19:51:32.953Z,48.80
2018-05-12T19:54:00.645Z,49.02
2018-05-12T19:56:28.296Z,49.29
2018-05-12T19:58:55.904Z,49.41
2018-05-12T20:01:23.585Z,49.24
2018-05-12T20:03:51.247Z,49.52
2018-05-12T20:06:18.852Z,49.31
2018-05-12T20:08:46.452Z,50.07
2018-05-12T20:11:14.377Z,50.64
2018-05-12T20:13:41.983Z,50.39
2018-05-12T20:16:09.716Z,49.75
2018-05-12T20:18:37.265Z,50.36
2018-05-12T20:21:04.947Z,51.43
2018-05-12T20:23:32.541Z,52.06
2018-05-12T20:26:00.212Z,52.33
2018-05-12T20:28:27.829Z,53.02
2018-05-12T20:30:55.423Z,53.14
2018-05-12T20:33:23.130Z,53.10
2018-05-12T20:35:50.749Z,52.81
2018-05-12T20:38:18.373Z,52.64
2018-05-12T20:40:46.009Z,52.57
2018-05-12T20:43:13.675Z,53.32
2018-05-12T20:45:41.312Z,53.58
2018-05-12T20:48:08.973Z,53.59
2018-05-12T20:50:36.561Z,53.38
2018-05-12T20:53:04.256Z,53.33
2018-05-12T20:55:31.897Z,53.65
2018-05-12T20:57:59.585Z,53.46
2018-05-12T21:00:27.204Z,53.25
2018-05-12T21:02:54.877Z,53.08
2018-05-12T21:05:22.469Z,53.26
2018-05-12T21:07:50.136Z,53.31
2018-05-12T21:10:17.736Z,53.37
2018-05-12T21:12:45.357Z,53.10
2018-05-12T21:15:12.989Z,52.83
2018-05-12T21:17:40.610Z,52.66
2018-05-12T21:20:08.273Z,52.61
2018-05-12T21:22:35.893Z,52.56
2018-05-12T21:25:03.531Z,52.08
2018-05-12T21:27:31.134Z,52.30
2018-05-12T21:30:00.169Z,51.73
2018-05-12T21:32:27.785Z,51.84
2018-05-12T21:34:55.506Z,52.42
2018-05-12T21:37:23.116Z,53.59
2018-05-12T21:39:50.837Z,51.76
2018-05-12T21:42:18.532Z,50.95
2018-05-12T21:44:46.092Z,50.44
2018-05-12T21:47:13.723Z,50.19
2018-05-12T21:49:41.326Z,50.15
2018-05-12T21:52:08.963Z,50.12
2018-05-12T21:54:36.692Z,50.01
2018-05-12T21:57:04.494Z,50.06
2018-05-12T21:59:32.111Z,50.01
2018-05-12T22:01:59.753Z,49.91
2018-05-12T22:04:27.420Z,49.72
2018-05-12T22:06:55.054Z,49.59
2018-05-12T22:09:22.928Z,49.56
2018-05-12T22:11:50.584Z,49.50
2018-05-12T22:14:18.208Z,49.20
2018-05-12T22:16:45.826Z,49.02
2018-05-12T22:19:13.432Z,48.91
2018-05-12T22:21:41.046Z,48.72
2018-05-12T22:24:08.804Z,48.83
2018-05-12T22:26:36.466Z,48.84
2018-05-12T22:29:04.091Z,48.66
2018-05-12T22:31:31.717Z,48.51
2018-05-12T22:33:59.350Z,48.28
2018-05-12T22:36:26.950Z,47.89
2018-05-12T22:38:54.663Z,47.42
2018-05-12T22:41:22.267Z,47.72
2018-05-12T22:43:49.903Z,47.89
2018-05-12T22:46:17.497Z,48.28
2018-05-12T22:48:45.241Z,48.48
2018-05-12T22:51:12.869Z,48.79
2018-05-12T22:53:40.495Z,48.16
2018-05-12T22:56:08.093Z,47.88
2018-05-12T22:58:35.738Z,47.89
2018-05-12T23:01:03.336Z,48.26
2018-05-12T23:03:31.043Z,49.20
2018-05-12T23:05:58.681Z,49.47
2018-05-12T23:08:26.351Z,49.90
2018-05-12T23:10:53.979Z,50.49
2018-05-12T23:13:21.615Z,50.71
2018-05-12T23:15:49.241Z,50.96
2018-05-12T23:18:16.912Z,50.48
2018-05-12T23:20:44.545Z,50.83
2018-05-12T23:23:12.173Z,50.78
2018-05-12T23:25:39.814Z,50.21
2018-05-12T23:28:07.451Z,50.18
2018-05-12T23:30:35.091Z,50.33
2018-05-12T23:33:02.697Z,50.88
2018-05-12T23:35:30.326Z,51.15
2018-05-12T23:37:57.933Z,51.52
2018-05-12T23:40:25.573Z,51.46
2018-05-12T23:42:53.197Z,51.72
2018-05-12T23:45:20.837Z,52.11
2018-05-12T23:47:48.449Z,50.37
2018-05-12T23:50:16.075Z,50.74
2018-05-12T23:52:43.680Z,50.40
2018-05-12T23:55:11.423Z,50.92
2018-05-12T23:57:39.033Z,51.19
